Time;durP1;ratioP1;P1;durP2;ratioP2;P2;SDS_P1;SDS_P2;PMS_P1;PMS_P2;Temp;Humidity;BMP_temperature;BMP_pressure;BME280_temperature;BME280_humidity;BME280_pressure;Samples;Min_cycle;Max_cycle;Signal;HPM_P1;HPM_P2
2021/01/09 04:52:13;;;;;;;;;11.60;11.00;;;;;;;;1530646;28;88883;-86
2021/01/09 04:52:59;;;;;;;;;9.50;7.75;;;;;;;;1534462;28;90133;-86
2021/01/09 04:53:45;;;;;;;;;12.60;12.60;;;;;;;;1528577;28;90318;-86
2021/01/09 04:54:30;;;;;;;;;13.00;13.00;;;;;;;;1530594;28;90473;-86
2021/01/09 04:55:15;;;;;;;;;8.50;8.50;;;;;;;;1534771;28;89241;-86
2021/01/09 04:56:01;;;;;;;;;13.25;13.25;;;;;;;;1537315;28;88135;-85
2021/01/09 04:56:47;;;;;;;;;11.50;11.50;;;;;;;;1536591;28;87396;-85
2021/01/09 04:57:33;;;;;;;;;14.00;14.00;;;;;;;;1536508;28;87800;-86
2021/01/09 04:58:18;;;;;;;;;14.75;14.00;;;;;;;;1540752;28;86856;-86
2021/01/09 04:59:04;;;;;;;;;9.50;9.50;;;;;;;;1536497;28;87001;-86
2021/01/09 04:59:49;;;;;;;;;15.75;15.75;;;;;;;;1534517;28;87458;-86
2021/01/09 05:00:34;;;;;;;;;14.50;14.50;;;;;;;;1536759;28;87272;-86
2021/01/09 05:01:20;;;;;;;;;9.75;9.75;;;;;;;;1536493;28;87041;-86
2021/01/09 05:02:07;;;;;;;;;12.75;12.75;;;;;;;;1534552;28;87161;-86
2021/01/09 05:02:52;;;;;;;;;13.80;13.80;;;;;;;;1537065;28;87125;-85
2021/01/09 05:03:37;;;;;;;;;13.00;11.00;;;;;;;;1528126;28;87346;-86
2021/01/09 05:04:22;;;;;;;;;15.25;15.25;;;;;;;;1527994;28;87003;-87
2021/01/09 05:05:08;;;;;;;;;12.00;12.00;;;;;;;;1528279;28;87807;-86
2021/01/09 05:05:54;;;;;;;;;14.20;14.20;;;;;;;;1522339;28;87118;-86
2021/01/09 05:06:40;;;;;;;;;12.25;12.25;;;;;;;;1524592;28;87254;-86
2021/01/09 05:07:25;;;;;;;;;11.20;11.20;;;;;;;;1528451;28;86950;-87
2021/01/09 05:08:11;;;;;;;;;12.75;12.75;;;;;;;;1528200;28;87042;-87
2021/01/09 05:08:56;;;;;;;;;12.50;12.50;;;;;;;;1530252;28;87033;-86
2021/01/09 05:09:42;;;;;;;;;11.25;11.25;;;;;;;;1534635;28;86935;-86
2021/01/09 05:10:33;;;;;;;;;19.20;16.00;;;;;;;;1534761;28;86314;-86
2021/01/09 05:11:19;;;;;;;;;17.00;17.00;;;;;;;;1531178;28;87191;-86
2021/01/09 05:12:05;;;;;;;;;10.00;10.00;;;;;;;;1534569;28;87205;-86
2021/01/09 05:12:50;;;;;;;;;13.60;13.60;;;;;;;;1536439;28;87975;-86
2021/01/09 05:13:35;;;;;;;;;15.00;15.00;;;;;;;;1532485;28;87062;-87
2021/01/09 05:14:21;;;;;;;;;16.00;16.00;;;;;;;;1524535;28;86745;-86
2021/01/09 05:15:06;;;;;;;;;11.75;11.75;;;;;;;;1524374;28;87120;-86
2021/01/09 05:15:54;;;;;;;;;12.50;12.50;;;;;;;;1530410;28;87224;-86
2021/01/09 05:16:39;;;;;;;;;14.80;14.80;;;;;;;;1530732;28;87093;-86
2021/01/09 05:17:25;;;;;;;;;8.25;8.25;;;;;;;;1532276;28;86942;-86
2021/01/09 05:18:10;;;;;;;;;12.00;12.00;;;;;;;;1538039;28;86285;-86
2021/01/09 05:18:55;;;;;;;;;12.67;12.67;;;;;;;;1533911;28;88564;-86
2021/01/09 05:19:42;;;;;;;;;12.00;12.00;;;;;;;;1532526;28;90478;-86
2021/01/09 05:20:27;;;;;;;;;12.00;12.00;;;;;;;;1530503;28;87879;-86
2021/01/09 05:21:12;;;;;;;;;11.75;11.75;;;;;;;;1540201;28;91718;-86
2021/01/09 05:22:00;;;;;;;;;15.75;15.75;;;;;;;;1534201;28;91648;-87
2021/01/09 05:22:46;;;;;;;;;12.00;12.00;;;;;;;;1534614;28;88085;-86
2021/01/09 05:23:49;;;;;;;;;18.75;16.50;;;;;;;;1534533;28;90323;-87
2021/01/09 05:24:36;;;;;;;;;15.00;15.00;;;;;;;;1534443;28;90360;-86
2021/01/09 05:25:25;;;;;;;;;14.80;14.40;;;;;;;;1541457;28;90328;-87
2021/01/09 05:26:10;;;;;;;;;15.40;15.40;;;;;;;;1534593;28;90676;-86
2021/01/09 05:26:55;;;;;;;;;19.00;14.00;;;;;;;;1536867;28;89770;-86
2021/01/09 05:27:40;;;;;;;;;16.25;15.75;;;;;;;;1534469;28;88891;-86
2021/01/09 05:28:26;;;;;;;;;13.25;12.75;;;;;;;;1530156;28;89493;-86
2021/01/09 05:29:14;;;;;;;;;17.50;15.50;;;;;;;;1536378;28;91214;-86
2021/01/09 05:30:00;;;;;;;;;13.60;13.60;;;;;;;;1536640;28;90164;-86
2021/01/09 05:30:45;;;;;;;;;15.25;15.25;;;;;;;;1534607;28;89923;-88
2021/01/09 05:31:31;;;;;;;;;15.00;15.00;;;;;;;;1536506;28;89558;-86
2021/01/09 05:32:16;;;;;;;;;14.50;14.50;;;;;;;;1536587;28;90420;-87
2021/01/09 05:33:01;;;;;;;;;9.50;9.50;;;;;;;;1530151;28;90279;-86
2021/01/09 05:33:48;;;;;;;;;17.25;16.00;;;;;;;;1529904;28;88997;-86
2021/01/09 05:34:52;;;;;;;;;15.60;14.20;;;;;;;;1528345;28;89631;-86
2021/01/09 05:35:38;;;;;;;;;14.60;14.60;;;;;;;;1526802;28;90003;-86
2021/01/09 05:36:23;;;;;;;;;15.50;15.50;;;;;;;;1526885;28;90448;-85
2021/01/09 05:37:15;;;;;;;;;13.25;13.25;;;;;;;;1530265;28;90063;-86
2021/01/09 05:38:00;;;;;;;;;15.00;15.00;;;;;;;;1536608;28;87894;-86
2021/01/09 05:38:46;;;;;;;;;13.25;12.75;;;;;;;;1529042;28;90391;-86
2021/01/09 05:39:46;;;;;;;;;15.00;15.00;;;;;;;;1528489;28;89135;-86
2021/01/09 05:40:38;;;;;;;;;20.40;15.20;;;;;;;;1531186;28;90497;-86
2021/01/09 05:41:24;;;;;;;;;16.20;15.00;;;;;;;;1522370;28;89416;-87
2021/01/09 05:42:09;;;;;;;;;17.00;17.00;;;;;;;;1519597;28;90101;-86
2021/01/09 05:43:05;;;;;;;;;8.00;8.00;;;;;;;;1524547;28;89206;-86
2021/01/09 05:44:01;;;;;;;;;11.80;11.80;;;;;;;;1522529;28;90291;-87
2021/01/09 05:44:46;;;;;;;;;12.40;12.40;;;;;;;;1522245;28;90861;-87
2021/01/09 05:45:32;;;;;;;;;19.25;18.25;;;;;;;;1525848;28;90083;-87
2021/01/09 05:46:18;;;;;;;;;12.40;12.40;;;;;;;;1522460;28;89459;-87
2021/01/09 05:47:04;;;;;;;;;11.75;11.75;;;;;;;;1522294;28;90079;-86
2021/01/09 05:47:49;;;;;;;;;15.00;15.00;;;;;;;;1525230;28;90387;-87
2021/01/09 05:48:35;;;;;;;;;15.75;13.00;;;;;;;;1523885;28;89276;-87
2021/01/09 05:49:27;;;;;;;;;13.60;13.60;;;;;;;;1524350;28;90542;-87
2021/01/09 05:50:13;;;;;;;;;9.80;8.20;;;;;;;;1531149;28;89857;-87
2021/01/09 05:51:03;;;;;;;;;15.50;14.50;;;;;;;;1528464;28;90383;-88
2021/01/09 05:51:56;;;;;;;;;13.60;13.60;;;;;;;;1528229;28;89415;-87
2021/01/09 05:52:41;;;;;;;;;16.40;13.80;;;;;;;;1530142;28;88616;-87
2021/01/09 05:53:35;;;;;;;;;16.50;15.25;;;;;;;;1531447;28;88101;-86
2021/01/09 05:54:32;;;;;;;;;12.00;11.80;;;;;;;;1528432;28;89202;-86
2021/01/09 05:55:18;;;;;;;;;10.60;10.60;;;;;;;;1528946;28;89494;-86
2021/01/09 05:56:06;;;;;;;;;17.50;14.50;;;;;;;;1536805;28;90664;-86
2021/01/09 05:56:51;;;;;;;;;15.60;15.20;;;;;;;;1531549;28;90879;-84
2021/01/09 05:57:36;;;;;;;;;16.25;16.25;;;;;;;;1524530;28;87885;-85
2021/01/09 05:58:23;;;;;;;;;11.75;11.75;;;;;;;;1528733;28;86857;-85
2021/01/09 05:59:09;;;;;;;;;13.60;13.60;;;;;;;;1534239;28;90523;-85
2021/01/09 05:59:58;;;;;;;;;12.20;12.20;;;;;;;;1534237;28;90472;-86
2021/01/09 06:00:45;;;;;;;;;11.20;11.20;;;;;;;;1531676;28;91514;-86
2021/01/09 06:01:30;;;;;;;;;8.80;8.80;;;;;;;;1530856;28;90884;-86
2021/01/09 06:02:16;;;;;;;;;11.50;11.50;;;;;;;;1531459;28;90293;-85
2021/01/09 06:03:09;;;;;;;;;15.00;12.50;;;;;;;;1531843;28;90860;-85
2021/01/09 06:04:02;;;;;;;;;8.80;8.20;;;;;;;;1526273;28;86916;-86
2021/01/09 06:04:48;;;;;;;;;10.00;10.00;;;;;;;;1528992;28;87192;-86
2021/01/09 06:05:36;;;;;;;;;12.00;12.00;;;;;;;;1526169;28;87339;-86
2021/01/09 06:06:33;;;;;;;;;15.20;15.00;;;;;;;;1525774;28;87391;-86
2021/01/09 06:07:24;;;;;;;;;11.00;11.00;;;;;;;;1527012;28;87072;-86
2021/01/09 06:08:10;;;;;;;;;11.00;11.00;;;;;;;;1532996;28;87036;-85
2021/01/09 06:08:59;;;;;;;;;14.00;14.00;;;;;;;;1529033;28;87962;-86
2021/01/09 06:09:46;;;;;;;;;13.60;13.60;;;;;;;;1531848;28;86981;-85
2021/01/09 06:10:36;;;;;;;;;13.40;13.00;;;;;;;;1531648;28;87058;-86
2021/01/09 06:11:27;;;;;;;;;12.80;12.80;;;;;;;;1529256;28;87087;-86
2021/01/09 06:12:13;;;;;;;;;11.00;11.00;;;;;;;;1532354;28;87037;-85
2021/01/09 06:13:00;;;;;;;;;6.25;6.25;;;;;;;;1538000;28;86878;-85
2021/01/09 06:13:48;;;;;;;;;12.40;12.40;;;;;;;;1533133;28;86973;-86
2021/01/09 06:14:35;;;;;;;;;9.20;9.20;;;;;;;;1531887;28;86243;-85
2021/01/09 06:15:23;;;;;;;;;10.60;10.60;;;;;;;;1531657;28;87271;-85
2021/01/09 06:16:08;;;;;;;;;11.40;11.40;;;;;;;;1529078;28;87118;-85
2021/01/09 06:16:54;;;;;;;;;12.25;12.25;;;;;;;;1531275;28;87854;-85
2021/01/09 06:17:40;;;;;;;;;3.20;3.20;;;;;;;;1530829;28;87002;-85
2021/01/09 06:18:26;;;;;;;;;10.00;10.00;;;;;;;;1535049;28;87002;-85
2021/01/09 06:19:11;;;;;;;;;10.50;10.50;;;;;;;;1536630;28;87417;-85
2021/01/09 06:19:56;;;;;;;;;9.50;9.50;;;;;;;;1535223;28;86942;-85
2021/01/09 06:20:42;;;;;;;;;15.50;15.50;;;;;;;;1533263;28;87315;-85
2021/01/09 06:21:28;;;;;;;;;11.25;11.25;;;;;;;;1531070;28;87154;-85
2021/01/09 06:22:14;;;;;;;;;10.80;10.80;;;;;;;;1539063;28;87143;-85
2021/01/09 06:23:00;;;;;;;;;11.00;11.00;;;;;;;;1537396;28;86904;-85
2021/01/09 06:23:45;;;;;;;;;12.75;12.25;;;;;;;;1535282;28;86810;-86
2021/01/09 06:24:31;;;;;;;;;11.50;11.50;;;;;;;;1535224;28;87884;-84
2021/01/09 06:25:17;;;;;;;;;13.25;12.00;;;;;;;;1531242;28;86987;-85
2021/01/09 06:26:02;;;;;;;;;11.80;11.80;;;;;;;;1538233;28;87040;-85
2021/01/09 06:26:48;;;;;;;;;17.00;15.00;;;;;;;;1537187;28;90390;-85
2021/01/09 06:27:34;;;;;;;;;8.00;8.00;;;;;;;;1533177;28;90762;-85
2021/01/09 06:28:20;;;;;;;;;11.60;11.60;;;;;;;;1525354;28;89495;-86
2021/01/09 06:29:20;;;;;;;;;16.00;13.80;;;;;;;;1525295;28;90351;-86
2021/01/09 06:30:10;;;;;;;;;13.20;11.20;;;;;;;;1527129;28;90634;-85
2021/01/09 06:30:55;;;;;;;;;11.40;11.40;;;;;;;;1529167;28;89297;-85
2021/01/09 06:31:41;;;;;;;;;11.75;11.75;;;;;;;;1525633;28;89981;-85
2021/01/09 06:32:28;;;;;;;;;13.25;13.25;;;;;;;;1530530;28;90090;-86
2021/01/09 06:33:14;;;;;;;;;12.80;12.80;;;;;;;;1534847;28;91336;-86
2021/01/09 06:34:01;;;;;;;;;12.60;12.60;;;;;;;;1531306;28;90365;-85
2021/01/09 06:34:48;;;;;;;;;10.80;10.80;;;;;;;;1532956;28;90374;-86
2021/01/09 06:35:33;;;;;;;;;11.40;11.40;;;;;;;;1537470;28;90162;-86
2021/01/09 06:36:19;;;;;;;;;11.00;11.00;;;;;;;;1535033;28;90454;-86
2021/01/09 06:37:05;;;;;;;;;13.50;13.50;;;;;;;;1528984;28;90578;-85
2021/01/09 06:37:50;;;;;;;;;9.00;9.00;;;;;;;;1536443;28;90238;-86
2021/01/09 06:38:35;;;;;;;;;13.75;13.75;;;;;;;;1543183;28;89494;-85
2021/01/09 06:39:22;;;;;;;;;11.25;11.25;;;;;;;;1541098;28;90169;-86
2021/01/09 06:40:08;;;;;;;;;15.20;15.20;;;;;;;;1540908;28;87805;-86
2021/01/09 06:40:53;;;;;;;;;15.25;15.25;;;;;;;;1537248;28;91449;-86
2021/01/09 06:41:39;;;;;;;;;14.75;14.75;;;;;;;;1535108;28;89203;-86
2021/01/09 06:42:24;;;;;;;;;15.00;15.00;;;;;;;;1530915;28;89972;-86
2021/01/09 06:43:10;;;;;;;;;12.75;12.75;;;;;;;;1531099;28;90690;-86
2021/01/09 06:43:55;;;;;;;;;12.50;12.50;;;;;;;;1531148;28;90399;-86
2021/01/09 06:44:47;;;;;;;;;14.50;14.50;;;;;;;;1530913;28;90080;-86
2021/01/09 06:45:32;;;;;;;;;12.60;12.60;;;;;;;;1531837;28;89335;-86
2021/01/09 06:46:32;;;;;;;;;9.00;9.00;;;;;;;;1531857;28;89933;-86
2021/01/09 06:47:27;;;;;;;;;13.60;12.40;;;;;;;;1534055;28;90761;-86
2021/01/09 06:48:14;;;;;;;;;10.20;10.20;;;;;;;;1541126;28;87811;-86
2021/01/09 06:48:59;;;;;;;;;13.80;12.20;;;;;;;;1538378;28;90875;-86
2021/01/09 06:49:44;;;;;;;;;14.75;14.75;;;;;;;;1541321;28;87736;-86
2021/01/09 06:50:31;;;;;;;;;14.00;14.00;;;;;;;;1537039;28;88973;-85
2021/01/09 06:51:34;;;;;;;;;11.60;11.60;;;;;;;;1534841;28;90564;-86
2021/01/09 06:52:19;;;;;;;;;16.80;16.80;;;;;;;;1530567;28;89845;-85
2021/01/09 06:53:05;;;;;;;;;11.50;11.50;;;;;;;;1533357;28;90307;-85
2021/01/09 06:54:28;;;;;;;;;14.25;12.50;;;;;;;;1531136;28;88792;-86
2021/01/09 06:55:14;;;;;;;;;16.40;14.60;;;;;;;;1529304;28;90717;-85
2021/01/09 06:55:59;;;;;;;;;17.75;17.00;;;;;;;;1528662;28;88891;-85
2021/01/09 06:56:45;;;;;;;;;11.50;11.50;;;;;;;;1517587;28;91630;-86
2021/01/09 06:57:35;;;;;;;;;14.00;14.00;;;;;;;;1517975;28;89662;-85
2021/01/09 06:58:24;;;;;;;;;10.60;10.60;;;;;;;;1525185;28;88113;-86
2021/01/09 06:59:09;;;;;;;;;13.80;13.80;;;;;;;;1522448;28;90749;-85
2021/01/09 06:59:54;;;;;;;;;14.25;14.25;;;;;;;;1516576;28;90553;-86
2021/01/09 07:00:39;;;;;;;;;15.50;15.50;;;;;;;;1518247;28;90604;-85
2021/01/09 07:01:26;;;;;;;;;11.00;11.00;;;;;;;;1518566;28;90274;-85
2021/01/09 07:02:20;;;;;;;;;15.60;15.60;;;;;;;;1516234;28;89192;-86
2021/01/09 07:03:07;;;;;;;;;10.40;10.40;;;;;;;;1519759;28;90863;-85
2021/01/09 07:03:53;;;;;;;;;14.80;14.80;;;;;;;;1526034;28;90814;-86
2021/01/09 07:04:47;;;;;;;;;14.00;13.50;;;;;;;;1522501;28;90781;-85
2021/01/09 07:05:41;;;;;;;;;16.40;16.40;;;;;;;;1522520;28;90951;-86
2021/01/09 07:06:50;;;;;;;;;15.00;15.00;;;;;;;;1522514;28;89579;-86
2021/01/09 07:07:54;;;;;;;;;15.00;15.00;;;;;;;;1519506;28;90922;-86
2021/01/09 07:08:40;;;;;;;;;21.80;16.40;;;;;;;;1522360;28;90883;-86
2021/01/09 07:09:27;;;;;;;;;13.20;13.20;;;;;;;;1522568;28;90745;-86
2021/01/09 07:10:12;;;;;;;;;14.00;14.00;;;;;;;;1516497;28;90802;-85
2021/01/09 07:10:58;;;;;;;;;17.75;16.25;;;;;;;;1516689;28;89584;-86
2021/01/09 07:11:45;;;;;;;;;15.40;15.40;;;;;;;;1518420;28;89300;-87
2021/01/09 07:12:30;;;;;;;;;5.60;5.60;;;;;;;;1519233;28;90952;-85
2021/01/09 07:13:16;;;;;;;;;15.00;15.00;;;;;;;;1518415;28;87977;-86
2021/01/09 07:14:13;;;;;;;;;16.25;16.25;;;;;;;;1518583;28;87151;-86
2021/01/09 07:15:06;;;;;;;;;16.40;16.40;;;;;;;;1516622;28;87095;-86
2021/01/09 07:16:10;;;;;;;;;11.80;11.80;;;;;;;;1516682;28;87227;-85
2021/01/09 07:16:56;;;;;;;;;14.00;14.00;;;;;;;;1521329;28;87035;-84
2021/01/09 07:17:45;;;;;;;;;14.60;14.60;;;;;;;;1526773;28;87066;-85
2021/01/09 07:18:30;;;;;;;;;16.60;16.60;;;;;;;;1532279;28;87167;-85
2021/01/09 07:19:16;;;;;;;;;14.00;14.00;;;;;;;;1527520;28;86135;-85
2021/01/09 07:20:04;;;;;;;;;16.80;16.80;;;;;;;;1519090;28;87032;-85
2021/01/09 07:20:52;;;;;;;;;13.60;13.60;;;;;;;;1517548;28;87021;-85
2021/01/09 07:21:39;;;;;;;;;15.80;12.40;;;;;;;;1516554;28;87910;-85
2021/01/09 07:22:25;;;;;;;;;13.40;13.40;;;;;;;;1522354;28;87100;-86
2021/01/09 07:23:15;;;;;;;;;11.40;11.40;;;;;;;;1524923;28;86925;-85
2021/01/09 07:24:00;;;;;;;;;14.00;14.00;;;;;;;;1522471;28;87094;-84
2021/01/09 07:24:46;;;;;;;;;14.00;14.00;;;;;;;;1522390;28;86994;-86
2021/01/09 07:25:33;;;;;;;;;12.00;12.00;;;;;;;;1518483;28;87023;-84
2021/01/09 07:26:19;;;;;;;;;14.00;14.00;;;;;;;;1516382;28;86969;-84
2021/01/09 07:27:06;;;;;;;;;16.25;16.25;;;;;;;;1523466;28;86771;-84
2021/01/09 07:27:54;;;;;;;;;17.60;17.60;;;;;;;;1530667;28;87172;-84
2021/01/09 07:28:41;;;;;;;;;16.80;16.80;;;;;;;;1528431;28;87103;-84
2021/01/09 07:29:26;;;;;;;;;18.20;18.20;;;;;;;;1528438;28;87905;-85
2021/01/09 07:30:13;;;;;;;;;15.00;15.00;;;;;;;;1532073;28;87378;-85
2021/01/09 07:31:01;;;;;;;;;16.40;16.40;;;;;;;;1530172;28;87083;-85
2021/01/09 07:31:47;;;;;;;;;10.00;10.00;;;;;;;;1532457;28;87027;-85
2021/01/09 07:32:39;;;;;;;;;16.50;16.50;;;;;;;;1528049;28;87424;-84
2021/01/09 07:33:26;;;;;;;;;16.40;16.40;;;;;;;;1525764;28;87894;-85
2021/01/09 07:34:12;;;;;;;;;14.80;14.80;;;;;;;;1525578;28;87059;-85
2021/01/09 07:35:05;;;;;;;;;15.00;15.00;;;;;;;;1525665;28;86811;-85
2021/01/09 07:35:52;;;;;;;;;17.00;17.00;;;;;;;;1525981;28;89518;-85
2021/01/09 07:36:38;;;;;;;;;18.00;18.00;;;;;;;;1529693;28;90574;-85
2021/01/09 07:37:34;;;;;;;;;17.20;17.20;;;;;;;;1528340;28;90453;-85
2021/01/09 07:38:20;;;;;;;;;15.00;15.00;;;;;;;;1528683;28;88737;-84
2021/01/09 07:39:05;;;;;;;;;18.50;18.50;;;;;;;;1528881;28;87465;-85
2021/01/09 07:39:54;;;;;;;;;15.00;15.00;;;;;;;;1534326;28;87722;-85
2021/01/09 07:40:45;;;;;;;;;14.60;14.60;;;;;;;;1534728;28;89668;-85
2021/01/09 07:41:33;;;;;;;;;15.20;15.20;;;;;;;;1529469;28;90175;-86
2021/01/09 07:42:24;;;;;;;;;11.00;11.00;;;;;;;;1531864;28;90208;-85
2021/01/09 07:43:33;;;;;;;;;13.80;13.80;;;;;;;;1532005;28;90398;-85
2021/01/09 07:44:19;;;;;;;;;15.40;15.40;;;;;;;;1526931;28;87143;-85
2021/01/09 07:45:08;;;;;;;;;16.40;16.40;;;;;;;;1533963;28;90128;-86
2021/01/09 07:45:54;;;;;;;;;14.80;14.80;;;;;;;;1528673;28;90338;-86
2021/01/09 07:47:10;;;;;;;;;14.20;12.40;;;;;;;;1531271;28;91379;-86
2021/01/09 07:47:56;;;;;;;;;17.20;17.20;;;;;;;;1524941;28;89675;-87
2021/01/09 07:48:41;;;;;;;;;15.00;15.00;;;;;;;;1523007;28;90493;-88
2021/01/09 07:49:28;;;;;;;;;17.00;17.00;;;;;;;;1519121;28;89693;-86
2021/01/09 07:50:15;;;;;;;;;17.40;17.40;;;;;;;;1519373;28;90149;-88
2021/01/09 07:51:00;;;;;;;;;16.40;16.40;;;;;;;;1525381;28;87668;-88
2021/01/09 07:51:45;;;;;;;;;16.75;16.75;;;;;;;;1528802;28;89752;-88
2021/01/09 07:52:32;;;;;;;;;8.50;8.50;;;;;;;;1535160;28;87129;-87
2021/01/09 07:53:25;;;;;;;;;14.80;14.80;;;;;;;;1536967;28;89334;-86
2021/01/09 07:54:10;;;;;;;;;15.40;14.20;;;;;;;;1541187;28;87731;-87
2021/01/09 07:54:56;;;;;;;;;9.75;9.75;;;;;;;;1534977;28;91066;-86
2021/01/09 07:55:45;;;;;;;;;19.00;18.40;;;;;;;;1528907;28;88609;-87
2021/01/09 07:56:34;;;;;;;;;16.20;16.20;;;;;;;;1531293;28;90029;-86
2021/01/09 07:57:19;;;;;;;;;15.40;15.40;;;;;;;;1528974;28;90415;-86
2021/01/09 07:58:04;;;;;;;;;14.00;14.00;;;;;;;;1531572;28;86878;-86
2021/01/09 07:58:49;;;;;;;;;15.75;14.50;;;;;;;;1539665;28;90423;-86
2021/01/09 07:59:35;;;;;;;;;8.00;8.00;;;;;;;;1534978;28;87081;-86
2021/01/09 08:00:20;;;;;;;;;16.25;16.25;;;;;;;;1528402;28;90209;-88
2021/01/09 08:01:05;;;;;;;;;12.25;12.25;;;;;;;;1530549;28;88164;-87
2021/01/09 08:01:50;;;;;;;;;18.75;18.75;;;;;;;;1528554;28;90114;-87
2021/01/09 08:02:37;;;;;;;;;18.25;18.25;;;;;;;;1530883;28;88026;-86
2021/01/09 08:03:23;;;;;;;;;14.80;14.80;;;;;;;;1530973;28;88690;-86
2021/01/09 08:04:09;;;;;;;;;16.25;16.25;;;;;;;;1528929;28;88774;-86
2021/01/09 08:05:04;;;;;;;;;15.40;15.40;;;;;;;;1525079;28;89804;-86
2021/01/09 08:05:49;;;;;;;;;18.40;18.40;;;;;;;;1532323;28;89641;-86
2021/01/09 08:06:35;;;;;;;;;13.50;13.50;;;;;;;;1533522;28;90385;-86
2021/01/09 08:07:20;;;;;;;;;16.00;16.00;;;;;;;;1534940;28;86935;-86
2021/01/09 08:08:07;;;;;;;;;15.50;15.00;;;;;;;;1530845;28;90386;-86
2021/01/09 08:08:52;;;;;;;;;11.40;10.60;;;;;;;;1528771;28;90714;-89
2021/01/09 08:09:37;;;;;;;;;17.75;17.75;;;;;;;;1530735;28;88913;-88
2021/01/09 08:10:35;;;;;;;;;20.75;19.25;;;;;;;;1536759;28;90432;-87
2021/01/09 08:11:20;;;;;;;;;16.60;16.60;;;;;;;;1534859;28;89259;-87
2021/01/09 08:12:06;;;;;;;;;18.00;18.00;;;;;;;;1528965;28;89231;-87
2021/01/09 08:12:54;;;;;;;;;14.50;14.50;;;;;;;;1530796;28;89693;-87
2021/01/09 08:13:39;;;;;;;;;17.20;17.20;;;;;;;;1529070;28;89608;-87
2021/01/09 08:14:25;;;;;;;;;15.00;15.00;;;;;;;;1532071;28;89692;-88
2021/01/09 08:15:11;;;;;;;;;17.25;17.25;;;;;;;;1530642;28;89920;-87
2021/01/09 08:15:57;;;;;;;;;9.40;9.40;;;;;;;;1528374;28;89285;-87
2021/01/09 08:16:42;;;;;;;;;8.60;8.60;;;;;;;;1534593;28;90760;-87
2021/01/09 08:17:28;;;;;;;;;18.25;18.25;;;;;;;;1525220;28;89968;-87
2021/01/09 08:18:13;;;;;;;;;16.50;16.50;;;;;;;;1531761;28;90528;-87
2021/01/09 08:19:16;;;;;;;;;18.00;18.00;;;;;;;;1529148;28;90799;-88
2021/01/09 08:20:11;;;;;;;;;19.80;19.80;;;;;;;;1533657;28;87963;-87
2021/01/09 08:20:56;;;;;;;;;20.00;20.00;;;;;;;;1537163;28;90915;-88
2021/01/09 08:21:42;;;;;;;;;20.00;18.75;;;;;;;;1535364;28;87109;-86
2021/01/09 08:22:27;;;;;;;;;19.25;19.25;;;;;;;;1537180;28;86855;-87
2021/01/09 08:23:13;;;;;;;;;23.20;18.60;;;;;;;;1539131;28;86079;-87
2021/01/09 08:23:58;;;;;;;;;15.50;15.50;;;;;;;;1540705;28;87152;-87
2021/01/09 08:24:44;;;;;;;;;18.75;18.75;;;;;;;;1535223;28;86961;-87
2021/01/09 08:25:32;;;;;;;;;14.75;14.75;;;;;;;;1528811;28;87625;-87
2021/01/09 08:26:17;;;;;;;;;17.40;17.40;;;;;;;;1525036;28;87146;-86
2021/01/09 08:27:03;;;;;;;;;18.25;16.75;;;;;;;;1525475;28;86987;-86
2021/01/09 08:27:50;;;;;;;;;12.50;12.50;;;;;;;;1528659;28;86956;-86
2021/01/09 08:28:35;;;;;;;;;12.00;12.00;;;;;;;;1524963;28;87329;-87
2021/01/09 08:29:21;;;;;;;;;15.50;15.50;;;;;;;;1524451;28;87051;-85
2021/01/09 08:30:07;;;;;;;;;15.00;15.00;;;;;;;;1524829;28;86934;-86
2021/01/09 08:30:52;;;;;;;;;13.25;13.25;;;;;;;;1524116;28;86343;-86
2021/01/09 08:31:40;;;;;;;;;13.50;13.50;;;;;;;;1530517;28;87034;-85
2021/01/09 08:32:26;;;;;;;;;16.20;16.20;;;;;;;;1530968;28;87216;-86
2021/01/09 08:33:13;;;;;;;;;15.75;15.75;;;;;;;;1528526;28;88234;-85
2021/01/09 08:33:58;;;;;;;;;18.60;18.60;;;;;;;;1525117;28;87435;-86
2021/01/09 08:34:47;;;;;;;;;12.50;12.50;;;;;;;;1524831;28;87164;-85
2021/01/09 08:35:36;;;;;;;;;15.80;15.80;;;;;;;;1530940;28;86855;-86
2021/01/09 08:36:22;;;;;;;;;17.20;17.20;;;;;;;;1525026;28;87015;-85
2021/01/09 08:37:07;;;;;;;;;20.00;20.00;;;;;;;;1519215;28;86756;-84
2021/01/09 08:37:53;;;;;;;;;15.50;15.50;;;;;;;;1524360;28;87394;-86
2021/01/09 08:38:39;;;;;;;;;18.25;18.25;;;;;;;;1522751;28;87281;-86
2021/01/09 08:39:24;;;;;;;;;17.40;17.40;;;;;;;;1518371;28;87205;-86
2021/01/09 08:40:10;;;;;;;;;10.00;10.00;;;;;;;;1524770;28;87494;-85
2021/01/09 08:40:58;;;;;;;;;12.00;12.00;;;;;;;;1530517;28;87996;-85
2021/01/09 08:41:43;;;;;;;;;16.60;16.60;;;;;;;;1526004;28;87410;-85
2021/01/09 08:42:30;;;;;;;;;30.75;30.75;;;;;;;;1528485;28;87350;-85
2021/01/09 08:43:15;;;;;;;;;28.20;28.20;;;;;;;;1533181;28;86932;-85
2021/01/09 08:44:07;;;;;;;;;36.75;36.75;;;;;;;;1528469;28;90554;-85
2021/01/09 08:44:52;;;;;;;;;36.80;36.80;;;;;;;;1528371;28;90419;-85
2021/01/09 08:45:48;;;;;;;;;39.75;36.75;;;;;;;;1532365;28;89407;-85
2021/01/09 08:46:34;;;;;;;;;41.80;40.40;;;;;;;;1530717;28;90629;-85
2021/01/09 08:47:20;;;;;;;;;37.80;37.80;;;;;;;;1519945;28;89899;-85
2021/01/09 08:48:08;;;;;;;;;30.25;29.50;;;;;;;;1524603;28;90488;-85
2021/01/09 08:48:53;;;;;;;;;26.60;26.60;;;;;;;;1530552;28;90503;-85
2021/01/09 08:49:41;;;;;;;;;23.25;23.25;;;;;;;;1528398;28;91627;-86
2021/01/09 08:50:27;;;;;;;;;23.00;20.20;;;;;;;;1522460;28;90400;-87
2021/01/09 08:51:18;;;;;;;;;22.60;22.20;;;;;;;;1527289;28;89395;-85
2021/01/09 08:52:05;;;;;;;;;18.60;18.60;;;;;;;;1524889;28;90411;-86
2021/01/09 08:52:51;;;;;;;;;22.00;20.80;;;;;;;;1540453;28;90372;-85
2021/01/09 08:53:55;;;;;;;;;17.00;17.00;;;;;;;;1540554;28;88474;-85
2021/01/09 08:54:43;;;;;;;;;18.80;17.20;;;;;;;;1539395;28;90021;-86
2021/01/09 08:55:30;;;;;;;;;13.00;13.00;;;;;;;;1534546;28;89032;-85
2021/01/09 08:56:17;;;;;;;;;20.00;19.40;;;;;;;;1537133;28;89310;-86
2021/01/09 08:57:03;;;;;;;;;19.00;19.00;;;;;;;;1542945;28;87908;-85
2021/01/09 08:57:48;;;;;;;;;20.00;20.00;;;;;;;;1540383;28;91329;-86
2021/01/09 08:58:34;;;;;;;;;18.00;18.00;;;;;;;;1534212;28;89277;-86
2021/01/09 08:59:19;;;;;;;;;17.00;17.00;;;;;;;;1536400;28;90617;-86
2021/01/09 09:00:05;;;;;;;;;23.25;23.25;;;;;;;;1536605;28;89255;-86
2021/01/09 09:00:53;;;;;;;;;21.00;21.00;;;;;;;;1534648;28;87794;-86
2021/01/09 09:01:44;;;;;;;;;24.60;24.60;;;;;;;;1529684;28;89713;-87
2021/01/09 09:02:32;;;;;;;;;30.00;28.40;;;;;;;;1528714;28;90276;-85
2021/01/09 09:03:18;;;;;;;;;51.40;46.40;;;;;;;;1528468;28;88427;-87
2021/01/09 09:04:06;;;;;;;;;72.50;58.25;;;;;;;;1529325;28;89497;-88
2021/01/09 09:04:52;;;;;;;;;58.80;50.80;;;;;;;;1527907;28;89405;-87
2021/01/09 09:05:39;;;;;;;;;65.20;54.80;;;;;;;;1531762;28;90930;-85
2021/01/09 09:06:26;;;;;;;;;66.75;56.25;;;;;;;;1522382;28;90858;-85
2021/01/09 09:07:12;;;;;;;;;70.00;58.25;;;;;;;;1522432;28;90745;-85
2021/01/09 09:08:00;;;;;;;;;55.00;45.80;;;;;;;;1524650;28;90821;-85
2021/01/09 09:08:46;;;;;;;;;55.20;47.40;;;;;;;;1524862;28;89427;-85
2021/01/09 09:09:32;;;;;;;;;60.00;51.40;;;;;;;;1525972;28;89633;-85
2021/01/09 09:10:18;;;;;;;;;51.80;43.40;;;;;;;;1524749;28;88898;-85
2021/01/09 09:11:04;;;;;;;;;41.50;38.50;;;;;;;;1522400;28;90050;-86
2021/01/09 09:11:49;;;;;;;;;42.75;40.50;;;;;;;;1524234;28;87670;-85
2021/01/09 09:12:35;;;;;;;;;38.00;36.25;;;;;;;;1530127;28;91019;-85
2021/01/09 09:13:24;;;;;;;;;39.00;37.50;;;;;;;;1534055;28;89830;-85
2021/01/09 09:14:10;;;;;;;;;38.20;35.60;;;;;;;;1531793;28;90815;-85
2021/01/09 09:14:56;;;;;;;;;33.75;33.75;;;;;;;;1528492;28;88034;-86
2021/01/09 09:15:41;;;;;;;;;27.20;25.20;;;;;;;;1530614;28;90523;-84
2021/01/09 09:16:26;;;;;;;;;24.75;24.75;;;;;;;;1529534;28;90336;-85
2021/01/09 09:17:19;;;;;;;;;27.50;27.50;;;;;;;;1528823;28;89097;-86
2021/01/09 09:18:04;;;;;;;;;20.40;20.40;;;;;;;;1522560;28;89965;-86
2021/01/09 09:18:49;;;;;;;;;19.00;19.00;;;;;;;;1519301;28;88755;-85
2021/01/09 09:19:35;;;;;;;;;16.00;16.00;;;;;;;;1524508;28;86792;-86
2021/01/09 09:20:23;;;;;;;;;17.20;17.20;;;;;;;;1529934;28;91284;-85
2021/01/09 09:21:08;;;;;;;;;15.80;13.20;;;;;;;;1534499;28;90396;-86
2021/01/09 09:21:58;;;;;;;;;16.00;16.00;;;;;;;;1531987;28;90548;-85
2021/01/09 09:22:43;;;;;;;;;14.40;14.40;;;;;;;;1528333;28;89863;-86
2021/01/09 09:23:29;;;;;;;;;18.50;18.50;;;;;;;;1524897;28;90515;-85
2021/01/09 09:24:15;;;;;;;;;17.75;17.75;;;;;;;;1528458;28;89215;-86
2021/01/09 09:25:00;;;;;;;;;23.60;19.80;;;;;;;;1528152;28;89288;-86
2021/01/09 09:25:46;;;;;;;;;19.50;19.50;;;;;;;;1522487;28;89909;-86
2021/01/09 09:26:32;;;;;;;;;17.00;17.00;;;;;;;;1524538;28;87086;-85
2021/01/09 09:27:27;;;;;;;;;19.50;19.50;;;;;;;;1533006;28;90248;-84
2021/01/09 09:28:12;;;;;;;;;18.20;17.20;;;;;;;;1534228;28;88057;-85
2021/01/09 09:28:59;;;;;;;;;16.50;16.50;;;;;;;;1531162;28;87372;-85
2021/01/09 09:29:44;;;;;;;;;13.40;13.40;;;;;;;;1528390;28;87072;-85